TimeEDT,TemperatureF,Dew PointF,Humidity,Sea Level PressureIn,VisibilityMPH,Wind Direction,Wind SpeedMPH,Gust SpeedMPH,PrecipitationIn,Events,Conditions,WindDirDegrees,DateUTC
12:53 AM,42.1,34.0,73,30.11,10.0,WNW,6.9,-,N/A,,Overcast,300,2012-10-07 04:53:00
1:53 AM,41.0,34.0,76,30.11,10.0,WNW,4.6,-,N/A,,Overcast,300,2012-10-07 05:53:00
2:53 AM,39.0,34.0,82,30.11,10.0,WNW,5.8,-,N/A,,Overcast,300,2012-10-07 06:53:00
3:53 AM,39.0,34.0,82,30.10,10.0,NW,9.2,-,N/A,,Overcast,320,2012-10-07 07:53:00
4:53 AM,39.0,34.0,82,30.09,10.0,NNW,6.9,-,N/A,,Overcast,340,2012-10-07 08:53:00
5:53 AM,39.0,34.0,82,30.09,10.0,NNW,3.5,-,N/A,,Overcast,340,2012-10-07 09:53:00
6:53 AM,36.0,34.0,93,30.10,10.0,NW,4.6,-,N/A,,Mostly Cloudy,310,2012-10-07 10:53:00
7:53 AM,36.0,34.0,93,30.11,10.0,NW,5.8,-,N/A,,Mostly Cloudy,310,2012-10-07 11:53:00
8:53 AM,39.0,35.1,86,30.11,10.0,Calm,Calm,-,N/A,,Mostly Cloudy,0,2012-10-07 12:53:00
9:53 AM,41.0,34.0,76,30.12,10.0,WNW,3.5,-,N/A,,Mostly Cloudy,290,2012-10-07 13:53:00
10:53 AM,42.1,34.0,73,30.12,10.0,Variable,3.5,-,N/A,,Mostly Cloudy,0,2012-10-07 14:53:00
11:53 AM,45.0,33.1,63,30.12,10.0,North,3.5,-,N/A,,Overcast,350,2012-10-07 15:53:00
12:53 PM,46.9,30.9,54,30.12,10.0,Calm,Calm,-,N/A,,Overcast,0,2012-10-07 16:53:00
1:53 PM,46.0,30.0,54,30.10,10.0,Calm,Calm,-,N/A,,Overcast,0,2012-10-07 17:53:00
2:53 PM,46.9,30.9,54,30.09,10.0,SSW,5.8,-,N/A,,Overcast,210,2012-10-07 18:53:00
3:53 PM,46.9,33.1,59,30.09,10.0,SSW,8.1,-,N/A,,Overcast,200,2012-10-07 19:53:00
4:53 PM,44.1,36.0,73,30.09,10.0,SSW,5.8,-,0.00,Rain,Light Rain,210,2012-10-07 20:53:00
5:53 PM,43.0,37.0,80,30.09,10.0,South,4.6,-,0.00,,Overcast,180,2012-10-07 21:53:00
6:53 PM,43.0,37.0,80,30.10,10.0,SW,3.5,-,N/A,,Overcast,230,2012-10-07 22:53:00
7:53 PM,41.0,36.0,82,30.12,10.0,WSW,5.8,-,N/A,,Mostly Cloudy,240,2012-10-07 23:53:00
8:53 PM,41.0,37.9,89,30.12,10.0,SSW,5.8,-,N/A,,Overcast,210,2012-10-08 00:53:00
9:53 PM,41.0,37.9,89,30.13,10.0,WSW,4.6,-,N/A,,Overcast,240,2012-10-08 01:53:00
10:53 PM,39.9,37.0,89,30.14,10.0,WSW,6.9,-,N/A,,Overcast,250,2012-10-08 02:53:00
11:53 PM,39.9,37.9,93,30.15,10.0,West,5.8,-,N/A,,Overcast,260,2012-10-08 03:53:00